createdAt,value
2023-04-23T00:00:24.463Z,94751.28
2023-04-23T00:03:27.771Z,94753.94
2023-04-23T00:06:30.799Z,94749.53
2023-04-23T00:09:33.022Z,94751.19
2023-04-23T00:12:35.776Z,94748.34
2023-04-23T00:15:38.512Z,94751.19
2023-04-23T00:18:40.429Z,94752.34
2023-04-23T00:21:42.832Z,94746.59
2023-04-23T00:24:44.963Z,94740.03
2023-04-23T00:27:47.921Z,94747.22
2023-04-23T00:30:49.852Z,94752.81
2023-04-23T00:33:52.043Z,94740.91
2023-04-23T00:36:53.978Z,94744.34
2023-04-23T00:39:56.059Z,94739.59
2023-04-23T00:42:58.423Z,94749.47
2023-04-23T00:46:00.639Z,94738.53
2023-04-23T00:49:03.228Z,94736.81
2023-04-23T00:52:06.069Z,94740.25
2023-04-23T00:55:09.075Z,94741.06
2023-04-23T00:58:11.096Z,94726.94
2023-04-23T01:01:13.998Z,94731.69
2023-04-23T01:04:17.917Z,94733.78
2023-04-23T01:07:21.364Z,94728.94
2023-04-23T01:10:23.657Z,94737.44
2023-04-23T01:13:29.893Z,94737.06
2023-04-23T01:16:31.942Z,94743.19
2023-04-23T01:19:33.878Z,94738.91
2023-04-23T01:22:37.823Z,94740.38
2023-04-23T01:25:40.009Z,94731.44
2023-04-23T01:28:43.669Z,94747.78
2023-04-23T01:31:47.009Z,94719.31
2023-04-23T01:34:49.341Z,94743.78
2023-04-23T01:37:52.683Z,94739.22
2023-04-23T01:40:54.653Z,94742.66
2023-04-23T01:43:59.898Z,94737.75
2023-04-23T01:47:01.921Z,94734.44
2023-04-23T01:50:05.276Z,94720.78
2023-04-23T01:53:07.320Z,94731.69
2023-04-23T01:56:10.695Z,94727.03
2023-04-23T01:59:12.664Z,94723.59
2023-04-23T02:02:15.298Z,94730.69
2023-04-23T02:05:19.110Z,94729.22
2023-04-23T02:08:21.421Z,94727.56
2023-04-23T02:11:24.166Z,94733.69
2023-04-23T02:14:26.171Z,94729.38
2023-04-23T02:17:29.303Z,94723.19
2023-04-23T02:20:31.417Z,94733.19
2023-04-23T02:23:33.507Z,94727.56
2023-04-23T02:26:35.347Z,94729.56
2023-04-23T02:29:38.107Z,94727.50
2023-04-23T02:32:41.789Z,94722.78
2023-04-23T02:35:43.700Z,94717.00
2023-04-23T02:38:47.613Z,94720.22
2023-04-23T02:41:49.520Z,94726.22
2023-04-23T02:44:51.628Z,94719.97
2023-04-23T02:47:53.621Z,94719.50
2023-04-23T02:50:55.631Z,94714.44
2023-04-23T02:53:58.126Z,94720.06
2023-04-23T02:57:00.262Z,94712.66
2023-04-23T03:00:04.283Z,94715.16
2023-04-23T03:03:06.464Z,94711.72
2023-04-23T03:06:08.601Z,94717.41
2023-04-23T03:09:10.891Z,94725.44
2023-04-23T03:12:12.912Z,94723.19
2023-04-23T03:15:14.847Z,94720.53
2023-04-23T03:18:16.766Z,94727.50
2023-04-23T03:21:18.589Z,94727.97
2023-04-23T03:24:20.669Z,94723.84
2023-04-23T03:27:22.493Z,94725.31
2023-04-23T03:30:24.812Z,94721.56
2023-04-23T03:33:26.860Z,94721.72
2023-04-23T03:36:29.290Z,94719.91
2023-04-23T03:39:31.201Z,94723.38
2023-04-23T03:42:34.235Z,94717.94
2023-04-23T03:45:36.236Z,94729.13
2023-04-23T03:48:38.098Z,94726.66
2023-04-23T03:51:40.132Z,94727.94
2023-04-23T03:54:42.285Z,94722.38
2023-04-23T03:57:44.298Z,94733.09
2023-04-23T04:00:47.352Z,94728.44
2023-04-23T04:03:49.755Z,94734.88
2023-04-23T04:06:51.912Z,94727.94
2023-04-23T04:09:53.831Z,94737.13
2023-04-23T04:12:56.234Z,94728.38
2023-04-23T04:15:59.642Z,94742.41
2023-04-23T04:19:01.866Z,94735.13
2023-04-23T04:22:03.873Z,94746.47
2023-04-23T04:25:07.006Z,94741.03
2023-04-23T04:28:11.756Z,94733.44
2023-04-23T04:31:16.038Z,94735.94
2023-04-23T04:34:18.384Z,94733.13
2023-04-23T04:37:21.410Z,94739.16
2023-04-23T04:40:23.355Z,94740.47
2023-04-23T04:43:25.249Z,94739.47
2023-04-23T04:46:29.334Z,94743.78
2023-04-23T04:49:31.366Z,94743.78
2023-04-23T04:52:33.373Z,94744.75
2023-04-23T04:55:35.234Z,94742.91
2023-04-23T04:58:37.316Z,94736.59
2023-04-23T05:01:39.316Z,94729.09
2023-04-23T05:04:41.489Z,94740.91
2023-04-23T05:07:43.685Z,94736.00
2023-04-23T05:10:45.871Z,94739.03
2023-04-23T05:13:48.847Z,94734.78
2023-04-23T05:16:51.281Z,94736.88
2023-04-23T05:19:53.223Z,94730.06
2023-04-23T05:22:55.372Z,94741.50
2023-04-23T05:25:58.774Z,94737.09
2023-04-23T05:29:00.763Z,94737.06
2023-04-23T05:32:02.724Z,94737.09
2023-04-23T05:35:06.231Z,94736.13
2023-04-23T05:38:12.377Z,94743.09
2023-04-23T05:41:15.591Z,94732.91
2023-04-23T05:44:17.410Z,94738.66
2023-04-23T05:47:19.375Z,94730.25
2023-04-23T05:50:22.009Z,94727.78
2023-04-23T05:53:24.135Z,94723.44
2023-04-23T05:56:26.089Z,94729.16
2023-04-23T05:59:28.314Z,94732.63
2023-04-23T06:02:34.003Z,94730.59
2023-04-23T06:05:38.269Z,94723.53
2023-04-23T06:08:40.679Z,94724.19
2023-04-23T06:11:42.768Z,94731.84
2023-04-23T06:14:44.774Z,94733.47
2023-04-23T06:17:49.383Z,94734.72
2023-04-23T06:20:51.672Z,94738.69
2023-04-23T06:23:54.640Z,94728.69
2023-04-23T06:26:57.863Z,94731.34
2023-04-23T06:30:01.911Z,94729.75
2023-04-23T06:33:05.137Z,94722.56
2023-04-23T06:36:11.001Z,94723.94
2023-04-23T06:39:13.337Z,94728.00
2023-04-23T06:42:15.255Z,94735.97
2023-04-23T06:45:20.425Z,94724.31
2023-04-23T06:48:22.807Z,94723.09
2023-04-23T06:51:28.127Z,94724.75
2023-04-23T06:54:32.395Z,94704.44
2023-04-23T06:57:37.553Z,94716.25
2023-04-23T07:00:44.412Z,94713.50
2023-04-23T07:03:49.296Z,94724.19
2023-04-23T07:07:00.319Z,94714.59
2023-04-23T07:10:02.545Z,94719.38
2023-04-23T07:13:04.844Z,94721.75
2023-04-23T07:16:07.140Z,94704.00
2023-04-23T07:19:09.319Z,94722.50
2023-04-23T07:22:14.467Z,94720.09
2023-04-23T07:25:22.673Z,94727.59
2023-04-23T07:28:29.297Z,94720.41
2023-04-23T07:31:35.569Z,94718.56
2023-04-23T07:34:40.137Z,94704.53
2023-04-23T07:37:44.637Z,94715.44
2023-04-23T07:40:47.450Z,94725.16
2023-04-23T07:43:49.612Z,94724.66
2023-04-23T07:46:54.666Z,94717.38
2023-04-23T07:50:02.154Z,94723.03
2023-04-23T07:53:05.308Z,94733.28
2023-04-23T07:56:10.566Z,94708.19
2023-04-23T07:59:12.805Z,94716.00
2023-04-23T08:02:18.743Z,94713.56
2023-04-23T08:05:23.974Z,94712.78
2023-04-23T08:08:30.920Z,94724.13
2023-04-23T08:11:37.765Z,94713.03
2023-04-23T08:14:40.383Z,94726.03
2023-04-23T08:17:45.158Z,94707.13
2023-04-23T08:20:54.181Z,94708.59
2023-04-23T08:23:58.699Z,94719.50
2023-04-23T08:27:00.723Z,94713.00
2023-04-23T08:30:05.102Z,94718.25
2023-04-23T08:33:10.807Z,94712.94
2023-04-23T08:36:12.927Z,94720.38
2023-04-23T08:39:18.037Z,94727.50
2023-04-23T08:42:58.972Z,94723.31
2023-04-23T08:46:06.189Z,94712.22
2023-04-23T08:49:09.227Z,94700.88
2023-04-23T08:52:23.178Z,94717.84
2023-04-23T08:55:26.288Z,94706.56
2023-04-23T08:58:34.288Z,94696.19
2023-04-23T09:01:39.305Z,94714.06
2023-04-23T09:04:45.924Z,94701.66
2023-04-23T09:07:50.930Z,94701.06
2023-04-23T09:10:59.176Z,94726.41
2023-04-23T09:14:02.170Z,94702.63
2023-04-23T09:17:07.039Z,94724.28
2023-04-23T09:20:09.967Z,94705.31
2023-04-23T09:23:21.723Z,94712.63
2023-04-23T09:26:23.785Z,94722.16
2023-04-23T09:29:26.854Z,94732.75
2023-04-23T09:32:34.816Z,94718.47
2023-04-23T09:35:40.724Z,94727.50
2023-04-23T09:38:43.062Z,94727.13
2023-04-23T09:41:48.328Z,94721.00
2023-04-23T09:45:04.762Z,94705.59
2023-04-23T09:48:07.021Z,94725.81
2023-04-23T09:51:09.302Z,94733.28
2023-04-23T09:54:18.579Z,94728.28
2023-04-23T09:57:20.593Z,94725.47
2023-04-23T10:00:25.852Z,94730.47
2023-04-23T10:03:30.933Z,94718.97
2023-04-23T10:06:44.292Z,94718.38
2023-04-23T10:09:51.808Z,94716.19
2023-04-23T10:12:57.339Z,94716.72
2023-04-23T10:16:13.894Z,94707.47
2023-04-23T10:19:19.703Z,94691.44
2023-04-23T10:22:22.917Z,94688.13
2023-04-23T10:25:25.780Z,94709.22
2023-04-23T10:28:33.688Z,94705.00
2023-04-23T10:31:38.806Z,94704.34
2023-04-23T10:34:42.159Z,94710.34
2023-04-23T10:37:46.456Z,94687.22
2023-04-23T10:40:51.058Z,94712.47
2023-04-23T10:43:53.904Z,94697.44
2023-04-23T10:46:58.470Z,94702.22
2023-04-23T10:50:23.115Z,94705.25
2023-04-23T10:53:26.388Z,94691.94
2023-04-23T10:56:28.613Z,94690.56
2023-04-23T10:59:32.215Z,94680.66
2023-04-23T11:02:44.955Z,94692.44
2023-04-23T11:05:47.031Z,94701.84
2023-04-23T11:08:56.850Z,94683.47
2023-04-23T11:12:01.525Z,94693.72
2023-04-23T11:15:15.173Z,94701.28
2023-04-23T11:18:17.263Z,94702.22
2023-04-23T11:21:19.347Z,94709.81
2023-04-23T11:24:23.051Z,94678.00
2023-04-23T11:27:25.529Z,94690.09
2023-04-23T11:30:29.956Z,94696.00
2023-04-23T11:33:32.142Z,94674.69
2023-04-23T11:36:34.713Z,94675.78
2023-04-23T11:39:44.264Z,94695.34
2023-04-23T11:42:51.357Z,94670.63
2023-04-23T11:45:55.877Z,94684.59
2023-04-23T11:49:00.130Z,94683.81
2023-04-23T11:52:02.233Z,94687.19
2023-04-23T11:55:06.587Z,94676.59
2023-04-23T11:58:08.536Z,94687.41
2023-04-23T12:01:13.472Z,94672.72
2023-04-23T12:04:27.080Z,94680.88
2023-04-23T12:07:32.927Z,94666.69
2023-04-23T12:10:50.123Z,94662.00
2023-04-23T12:13:53.990Z,94671.94
2023-04-23T12:16:57.320Z,94665.06
2023-04-23T12:19:59.272Z,94658.25
2023-04-23T12:23:05.488Z,94667.00
2023-04-23T12:26:15.692Z,94659.47
2023-04-23T12:29:18.312Z,94656.78
2023-04-23T12:32:27.052Z,94648.72
2023-04-23T12:35:58.480Z,94642.28
2023-04-23T12:39:32.086Z,94640.06
2023-04-23T12:42:34.688Z,94643.34
2023-04-23T12:45:39.626Z,94634.88
2023-04-23T12:48:41.606Z,94644.81
2023-04-23T12:51:43.738Z,94633.22
2023-04-23T12:54:45.845Z,94640.72
2023-04-23T12:57:47.770Z,94622.94
2023-04-23T13:00:49.682Z,94621.78
2023-04-23T13:03:52.101Z,94624.59
2023-04-23T13:06:54.567Z,94620.22
2023-04-23T13:09:57.746Z,94604.75
2023-04-23T13:12:59.762Z,94609.72
2023-04-23T13:16:02.125Z,94600.78
2023-04-23T13:19:05.213Z,94599.84
2023-04-23T13:22:07.199Z,94607.59
2023-04-23T13:25:09.647Z,94599.69
2023-04-23T13:28:11.613Z,94595.25
2023-04-23T13:31:14.275Z,94594.13
2023-04-23T13:34:16.738Z,94586.97
2023-04-23T13:37:18.740Z,94570.59
2023-04-23T13:40:20.837Z,94575.41
2023-04-23T13:43:22.972Z,94577.50
2023-04-23T13:46:27.734Z,94582.72
2023-04-23T13:49:29.644Z,94587.22
2023-04-23T13:52:34.735Z,94576.75
2023-04-23T13:55:37.212Z,94559.91
2023-04-23T13:58:42.890Z,94574.81
2023-04-23T14:01:47.237Z,94576.13
2023-04-23T14:05:09.848Z,94564.75
2023-04-23T14:08:13.052Z,94567.50
2023-04-23T14:11:15.052Z,94570.31
2023-04-23T14:14:16.904Z,94566.88
2023-04-23T14:17:18.822Z,94563.50
2023-04-23T14:20:20.938Z,94554.44
2023-04-23T14:23:22.834Z,94558.28
2023-04-23T14:26:46.709Z,94547.47
2023-04-23T14:29:55.922Z,94557.88
2023-04-23T14:32:57.846Z,94544.84
2023-04-23T14:35:59.755Z,94547.06
2023-04-23T14:39:05.123Z,94541.19
2023-04-23T14:42:06.972Z,94540.97
2023-04-23T14:45:09.270Z,94532.09
2023-04-23T14:48:12.465Z,94547.31
2023-04-23T14:51:14.383Z,94540.22
2023-04-23T14:54:17.436Z,94547.38
2023-04-23T14:57:19.349Z,94550.41
2023-04-23T15:00:22.381Z,94553.03
2023-04-23T15:03:24.546Z,94546.16
2023-04-23T15:06:26.862Z,94554.97
2023-04-23T15:09:28.687Z,94544.13
2023-04-23T15:12:53.693Z,94553.41
2023-04-23T15:16:00.158Z,94546.69
2023-04-23T15:19:06.390Z,94541.97
2023-04-23T15:22:08.436Z,94543.13
2023-04-23T15:25:10.993Z,94544.06
2023-04-23T15:28:12.887Z,94533.69
2023-04-23T15:31:14.933Z,94529.16
2023-04-23T15:34:16.802Z,94536.69
2023-04-23T15:37:21.113Z,94534.16
2023-04-23T15:40:23.364Z,94545.88
2023-04-23T15:43:25.532Z,94534.88
2023-04-23T15:46:27.361Z,94529.09
2023-04-23T15:49:31.696Z,94526.81
2023-04-23T15:52:33.749Z,94523.63
2023-04-23T15:55:35.851Z,94528.09
2023-04-23T15:58:38.144Z,94522.50
2023-04-23T16:01:40.358Z,94519.50
2023-04-23T16:04:43.003Z,94517.63
2023-04-23T16:07:45.308Z,94500.94
2023-04-23T16:10:47.410Z,94514.72
2023-04-23T16:13:49.582Z,94507.53
2023-04-23T16:16:52.215Z,94504.50
2023-04-23T16:19:54.320Z,94499.91
2023-04-23T16:22:56.434Z,94506.88
2023-04-23T16:25:58.458Z,94499.59
2023-04-23T16:32:07.103Z,94499.16
2023-04-23T16:35:11.866Z,94492.69
2023-04-23T16:38:14.021Z,94494.81
2023-04-23T16:41:17.673Z,94489.78
2023-04-23T16:44:19.765Z,94489.03
2023-04-23T16:47:21.925Z,94495.50
2023-04-23T16:50:24.160Z,94486.31
2023-04-23T16:53:26.298Z,94492.81
2023-04-23T16:56:28.534Z,94493.56
2023-04-23T16:59:31.020Z,94487.47
2023-04-23T17:02:34.612Z,94491.41
2023-04-23T17:05:39.175Z,94488.09
2023-04-23T17:08:41.487Z,94481.28
2023-04-23T17:11:43.550Z,94479.47
2023-04-23T17:14:45.549Z,94489.59
2023-04-23T17:17:47.536Z,94486.81
2023-04-23T17:20:50.642Z,94485.06
2023-04-23T17:23:53.181Z,94488.38
2023-04-23T17:26:55.086Z,94483.06
2023-04-23T17:29:58.932Z,94480.25
2023-04-23T17:33:01.192Z,94488.88
2023-04-23T17:36:04.560Z,94481.16
2023-04-23T17:39:07.660Z,94480.13
2023-04-23T17:42:10.461Z,94490.97
2023-04-23T17:45:12.955Z,94490.38
2023-04-23T17:48:15.666Z,94494.44
2023-04-23T17:51:18.864Z,94494.22
2023-04-23T17:54:24.754Z,94500.34
2023-04-23T17:57:27.020Z,94506.44
2023-04-23T18:00:29.239Z,94495.16
2023-04-23T18:03:32.302Z,94493.09
2023-04-23T18:06:36.056Z,94495.47
2023-04-23T18:09:38.573Z,94494.00
2023-04-23T18:12:40.906Z,94509.63
2023-04-23T18:15:49.800Z,94506.09
2023-04-23T18:18:52.132Z,94505.84
2023-04-23T18:21:57.560Z,94507.81
2023-04-23T18:24:59.777Z,94511.78
2023-04-23T18:28:02.337Z,94510.09
2023-04-23T18:31:04.783Z,94509.41
2023-04-23T18:34:10.739Z,94514.44
2023-04-23T18:37:33.221Z,94511.03
2023-04-23T18:40:48.752Z,94500.75
2023-04-23T18:43:51.561Z,94505.47
2023-04-23T18:46:53.858Z,94512.44
2023-04-23T18:50:03.645Z,94517.31
2023-04-23T18:53:06.627Z,94510.31
2023-04-23T18:56:11.058Z,94511.47
2023-04-23T18:59:15.751Z,94504.75
2023-04-23T19:02:28.221Z,94510.31
2023-04-23T19:05:37.293Z,94509.63
2023-04-23T19:08:42.946Z,94519.44
2023-04-23T19:11:45.369Z,94517.53
2023-04-23T19:14:50.538Z,94507.63
2023-04-23T19:17:53.064Z,94519.19
2023-04-23T19:20:55.742Z,94511.56
2023-04-23T19:23:58.100Z,94508.84
2023-04-23T19:27:00.969Z,94513.97
2023-04-23T19:30:05.220Z,94519.53
2023-04-23T19:33:07.608Z,94505.97
2023-04-23T19:36:10.413Z,94503.75
2023-04-23T19:39:12.762Z,94504.16
2023-04-23T19:42:15.257Z,94507.78
2023-04-23T19:45:18.477Z,94507.97
2023-04-23T19:48:20.807Z,94503.31
2023-04-23T19:51:27.994Z,94503.75
2023-04-23T19:54:30.683Z,94503.13
2023-04-23T19:57:33.071Z,94493.03
2023-04-23T20:00:39.110Z,94497.19
2023-04-23T20:03:43.819Z,94491.00
2023-04-23T20:06:46.096Z,94490.00
2023-04-23T20:09:48.227Z,94493.16
2023-04-23T20:12:50.362Z,94497.44
2023-04-23T20:15:55.718Z,94494.38
2023-04-23T20:18:57.963Z,94500.19
2023-04-23T20:22:07.716Z,94490.94
2023-04-23T20:25:10.209Z,94488.56
2023-04-23T20:28:12.252Z,94496.94
2023-04-23T20:31:15.016Z,94494.75
2023-04-23T20:34:17.300Z,94495.97
2023-04-23T20:37:21.677Z,94496.91
2023-04-23T20:40:25.023Z,94497.28
2023-04-23T20:43:27.003Z,94493.72
2023-04-23T20:46:32.512Z,94503.19
2023-04-23T20:49:34.821Z,94494.16
2023-04-23T20:52:37.086Z,94493.28
2023-04-23T20:55:39.140Z,94492.16
2023-04-23T20:58:41.909Z,94486.59
2023-04-23T21:01:43.917Z,94482.53
2023-04-23T21:04:45.863Z,94480.91
2023-04-23T21:07:50.760Z,94488.34
2023-04-23T21:10:52.893Z,94477.44
2023-04-23T21:14:00.170Z,94489.66
2023-04-23T21:17:02.780Z,94480.91
2023-04-23T21:20:05.773Z,94477.34
2023-04-23T21:23:10.062Z,94475.97
2023-04-23T21:26:12.341Z,94480.97
2023-04-23T21:29:14.419Z,94474.56
2023-04-23T21:32:16.687Z,94472.56
2023-04-23T21:35:19.588Z,94474.22
2023-04-23T21:38:21.654Z,94470.59
2023-04-23T21:41:24.577Z,94468.75
2023-04-23T21:44:28.579Z,94460.94
2023-04-23T21:47:30.469Z,94469.28
2023-04-23T21:50:36.203Z,94464.03
2023-04-23T21:53:41.284Z,94466.03
2023-04-23T21:56:50.752Z,94465.38
2023-04-23T21:59:52.718Z,94449.63
2023-04-23T22:03:00.809Z,94460.50
2023-04-23T22:06:04.377Z,94454.78
2023-04-23T22:09:07.410Z,94446.38
2023-04-23T22:12:10.112Z,94441.31
2023-04-23T22:15:19.516Z,94447.03
2023-04-23T22:18:21.580Z,94439.19
2023-04-23T22:21:23.459Z,94440.81
2023-04-23T22:24:25.347Z,94437.72
2023-04-23T22:27:27.233Z,94442.81
2023-04-23T22:30:30.722Z,94445.25
2023-04-23T22:33:32.706Z,94441.97
2023-04-23T22:36:34.607Z,94437.34
2023-04-23T22:39:36.677Z,94442.47
2023-04-23T22:42:38.656Z,94434.28
2023-04-23T22:45:40.728Z,94434.59
2023-04-23T22:48:45.006Z,94422.78
2023-04-23T22:51:47.433Z,94415.75
2023-04-23T22:54:49.979Z,94422.66
2023-04-23T22:57:52.016Z,94425.13
2023-04-23T23:00:55.105Z,94411.31
2023-04-23T23:03:57.285Z,94415.88
2023-04-23T23:06:59.174Z,94411.78
2023-04-23T23:10:01.110Z,94404.22
2023-04-23T23:13:03.053Z,94414.09
2023-04-23T23:16:05.933Z,94412.22
2023-04-23T23:19:08.330Z,94408.13
2023-04-23T23:22:10.307Z,94403.53
2023-04-23T23:25:12.772Z,94408.44
2023-04-23T23:28:14.650Z,94402.72
2023-04-23T23:31:16.992Z,94397.28
2023-04-23T23:34:19.339Z,94395.13
2023-04-23T23:37:21.560Z,94393.31
2023-04-23T23:40:23.649Z,94391.97
2023-04-23T23:43:25.794Z,94392.66
2023-04-23T23:46:28.141Z,94386.41
2023-04-23T23:49:30.277Z,94389.38
2023-04-23T23:52:32.373Z,94384.50
2023-04-23T23:55:34.277Z,94382.34
2023-04-23T23:58:36.585Z,94380.41
